createdAt,value
2023-02-01T00:01:20.060Z,100.00
2023-02-01T00:03:48.020Z,100.00
2023-02-01T00:06:16.034Z,100.00
2023-02-01T00:08:44.257Z,100.00
2023-02-01T00:11:13.806Z,100.00
2023-02-01T00:13:43.574Z,100.00
2023-02-01T00:16:15.556Z,100.00
2023-02-01T00:18:43.667Z,100.00
2023-02-01T00:21:12.654Z,100.00
2023-02-01T00:23:41.040Z,100.00
2023-02-01T00:26:15.263Z,100.00
2023-02-01T00:28:43.582Z,100.00
2023-02-01T00:31:13.179Z,100.00
2023-02-01T00:33:41.185Z,100.00
2023-02-01T00:36:11.563Z,100.00
2023-02-01T00:38:40.454Z,100.00
2023-02-01T00:41:12.062Z,100.00
2023-02-01T00:43:40.462Z,100.00
2023-02-01T00:46:08.592Z,100.00
2023-02-01T00:48:38.169Z,100.00
2023-02-01T00:51:08.654Z,100.00
2023-02-01T00:53:36.669Z,100.00
2023-02-01T00:56:06.085Z,100.00
2023-02-01T00:58:34.682Z,100.00
2023-02-01T01:01:07.563Z,100.00
2023-02-01T01:03:38.417Z,100.00
2023-02-01T01:06:08.905Z,100.00
2023-02-01T01:08:37.443Z,100.00
2023-02-01T01:11:10.199Z,100.00
2023-02-01T01:13:38.751Z,100.00
2023-02-01T01:16:08.818Z,100.00
2023-02-01T01:18:38.808Z,100.00
2023-02-01T01:21:07.963Z,100.00
2023-02-01T01:23:36.499Z,100.00
2023-02-01T01:26:08.202Z,100.00
2023-02-01T01:28:36.499Z,100.00
2023-02-01T01:31:04.960Z,100.00
2023-02-01T01:33:33.037Z,100.00
2023-02-01T01:36:02.409Z,100.00
2023-02-01T01:38:30.332Z,100.00
2023-02-01T01:40:58.432Z,100.00
2023-02-01T01:43:26.347Z,100.00
2023-02-01T01:45:54.265Z,100.00
2023-02-01T01:48:28.301Z,100.00
2023-02-01T01:51:01.773Z,100.00
2023-02-01T01:53:36.354Z,100.00
2023-02-01T01:56:04.374Z,100.00
2023-02-01T01:58:35.356Z,100.00
2023-02-01T02:01:03.374Z,100.00
2023-02-01T02:03:37.037Z,100.00
2023-02-01T02:06:08.841Z,100.00
2023-02-01T02:08:38.115Z,100.00
2023-02-01T02:11:06.268Z,100.00
2023-02-01T02:13:38.002Z,100.00
2023-02-01T02:16:27.247Z,100.00
2023-02-01T02:19:19.284Z,100.00
2023-02-01T02:22:02.292Z,100.00
2023-02-01T02:25:03.903Z,100.00
2023-02-01T02:27:48.929Z,100.00
2023-02-01T02:30:40.093Z,100.00
2023-02-01T02:33:42.587Z,100.00
2023-02-01T02:36:19.069Z,100.00
2023-02-01T02:38:54.706Z,100.00
2023-02-01T02:41:48.123Z,100.00
2023-02-01T02:44:48.944Z,100.00
2023-02-01T02:47:27.068Z,100.00
2023-02-01T02:50:19.570Z,100.00
2023-02-01T02:53:08.791Z,100.00
2023-02-01T02:55:39.264Z,100.00
2023-02-01T02:58:26.746Z,100.00
2023-02-01T03:01:14.226Z,100.00
2023-02-01T03:03:59.873Z,100.00
2023-02-01T03:06:29.127Z,100.00
2023-02-01T03:08:59.792Z,100.00
2023-02-01T03:11:49.611Z,100.00
2023-02-01T03:14:19.090Z,100.00
2023-02-01T03:16:52.885Z,100.00
2023-02-01T03:19:25.878Z,100.00
2023-02-01T03:24:35.096Z,100.00
2023-02-01T03:27:08.912Z,100.00
2023-02-01T03:29:42.990Z,100.00
2023-02-01T03:32:11.541Z,100.00
2023-02-01T03:34:39.760Z,100.00
2023-02-01T03:37:12.976Z,100.00
2023-02-01T03:39:48.508Z,100.00
2023-02-01T03:42:21.251Z,100.00
2023-02-01T03:44:55.553Z,100.00
2023-02-01T03:47:27.398Z,100.00
2023-02-01T03:50:00.373Z,100.00
2023-02-01T03:52:35.214Z,100.00
2023-02-01T03:55:04.431Z,100.00
2023-02-01T03:57:36.908Z,100.00
2023-02-01T04:00:11.109Z,100.00
2023-02-01T04:02:39.154Z,100.00
2023-02-01T04:05:07.316Z,100.00
2023-02-01T04:07:36.777Z,100.00
2023-02-01T04:10:05.433Z,100.00
2023-02-01T04:12:33.366Z,100.00
2023-02-01T04:15:01.306Z,100.00
2023-02-01T04:17:29.264Z,100.00
2023-02-01T04:19:57.376Z,100.00
2023-02-01T04:22:25.490Z,100.00
2023-02-01T04:24:54.741Z,100.00
2023-02-01T04:27:22.863Z,100.00
2023-02-01T04:29:51.590Z,100.00
2023-02-01T04:32:20.832Z,100.00
2023-02-01T04:34:48.934Z,100.00
2023-02-01T04:37:16.900Z,100.00
2023-02-01T04:39:44.853Z,100.00
2023-02-01T04:42:14.765Z,100.00
2023-02-01T04:44:42.985Z,100.00
2023-02-01T04:47:11.577Z,100.00
2023-02-01T04:49:39.708Z,100.00
2023-02-01T04:52:07.679Z,100.00
2023-02-01T04:54:35.763Z,100.00
2023-02-01T04:57:03.677Z,100.00
2023-02-01T04:59:32.910Z,100.00
2023-02-01T05:02:01.020Z,100.00
2023-02-01T05:04:29.350Z,100.00
2023-02-01T05:06:57.297Z,100.00
2023-02-01T05:09:25.245Z,100.00
2023-02-01T05:12:10.673Z,100.00
2023-02-01T05:14:39.940Z,100.00
2023-02-01T05:17:07.987Z,100.00
2023-02-01T05:19:35.929Z,100.00
2023-02-01T05:22:03.828Z,100.00
2023-02-01T05:24:31.747Z,100.00
2023-02-01T05:26:59.775Z,100.00
2023-02-01T05:29:27.704Z,100.00
2023-02-01T05:31:59.302Z,100.00
2023-02-01T05:34:29.182Z,100.00
2023-02-01T05:36:57.063Z,100.00
2023-02-01T05:39:25.002Z,100.00
2023-02-01T05:41:52.915Z,100.00
2023-02-01T05:44:20.901Z,100.00
2023-02-01T05:46:50.221Z,100.00
2023-02-01T05:49:19.544Z,100.00
2023-02-01T05:51:52.512Z,100.00
2023-02-01T05:54:20.583Z,100.00
2023-02-01T05:56:48.456Z,100.00
2023-02-01T05:59:16.708Z,100.00
2023-02-01T06:01:45.678Z,100.00
2023-02-01T06:04:14.952Z,100.00
2023-02-01T06:06:44.377Z,100.00
2023-02-01T06:09:12.446Z,100.00
2023-02-01T06:11:42.352Z,100.00
2023-02-01T06:14:10.394Z,100.00
2023-02-01T06:16:38.646Z,100.00
2023-02-01T06:19:06.861Z,100.00
2023-02-01T06:21:35.299Z,100.00
2023-02-01T06:24:04.987Z,100.00
2023-02-01T06:26:35.105Z,100.00
2023-02-01T06:29:03.452Z,100.00
2023-02-01T06:31:33.169Z,100.00
2023-02-01T06:34:01.667Z,100.00
2023-02-01T06:36:29.718Z,100.00
2023-02-01T06:39:00.319Z,100.00
2023-02-01T06:41:29.876Z,100.00
2023-02-01T06:43:58.051Z,100.00
2023-02-01T06:46:26.161Z,100.00
2023-02-01T06:48:55.479Z,100.00
2023-02-01T06:51:25.790Z,100.00
2023-02-01T06:53:54.400Z,100.00
2023-02-01T06:56:23.155Z,100.00
2023-02-01T06:58:52.696Z,100.00
2023-02-01T07:01:21.841Z,100.00
2023-02-01T07:03:52.050Z,100.00
2023-02-01T07:06:20.840Z,100.00
2023-02-01T07:08:49.194Z,100.00
2023-02-01T07:11:18.533Z,100.00
2023-02-01T07:13:47.543Z,100.00
2023-02-01T07:16:19.581Z,100.00
2023-02-01T07:18:48.519Z,100.00
2023-02-01T07:21:18.589Z,100.00
2023-02-01T07:23:47.340Z,100.00
2023-02-01T07:26:17.545Z,100.00
2023-02-01T07:28:47.175Z,100.00
2023-02-01T07:31:19.986Z,100.00
2023-02-01T07:33:48.047Z,100.00
2023-02-01T07:36:18.215Z,100.00
2023-02-01T07:38:47.969Z,100.00
2023-02-01T07:41:16.707Z,100.00
2023-02-01T07:43:44.879Z,100.00
2023-02-01T07:46:13.715Z,100.00
2023-02-01T07:48:43.121Z,100.00
2023-02-01T07:51:14.254Z,100.00
2023-02-01T07:53:43.556Z,100.00
2023-02-01T07:56:14.871Z,100.00
2023-02-01T07:58:42.994Z,100.00
2023-02-01T08:01:22.740Z,100.00
2023-02-01T08:03:53.926Z,100.00
2023-02-01T08:06:22.886Z,100.00
2023-02-01T08:08:51.925Z,100.00
2023-02-01T08:11:21.511Z,100.00
2023-02-01T08:13:50.015Z,100.00
2023-02-01T08:16:19.910Z,100.00
2023-02-01T08:18:48.617Z,100.00
2023-02-01T08:21:20.180Z,100.00
2023-02-01T08:23:48.612Z,100.00
2023-02-01T08:26:19.762Z,100.00
2023-02-01T08:28:53.621Z,100.00
2023-02-01T08:31:24.042Z,100.00
2023-02-01T08:33:54.044Z,100.00
2023-02-01T08:36:25.556Z,100.00
2023-02-01T08:38:53.836Z,100.00
2023-02-01T08:41:24.205Z,100.00
2023-02-01T08:43:54.184Z,100.00
2023-02-01T08:46:22.436Z,100.00
2023-02-01T08:48:51.111Z,100.00
2023-02-01T08:51:22.300Z,100.00
2023-02-01T08:53:52.432Z,100.00
2023-02-01T08:56:21.928Z,100.00
2023-02-01T08:58:50.082Z,100.00
2023-02-01T09:01:19.617Z,100.00
2023-02-01T09:03:48.103Z,100.00
2023-02-01T09:06:20.578Z,100.00
2023-02-01T09:08:48.677Z,100.00
2023-02-01T09:11:21.633Z,100.00
2023-02-01T09:13:50.613Z,100.00
2023-02-01T09:16:18.977Z,100.00
2023-02-01T09:18:56.196Z,100.00
2023-02-01T09:21:35.719Z,100.00
2023-02-01T09:24:05.230Z,100.00
2023-02-01T09:26:35.210Z,100.00
2023-02-01T09:29:04.518Z,100.00
2023-02-01T09:31:33.014Z,100.00
2023-02-01T09:34:01.686Z,100.00
2023-02-01T09:36:31.238Z,100.00
2023-02-01T09:39:00.000Z,100.00
2023-02-01T09:41:45.731Z,100.00
2023-02-01T09:44:35.597Z,100.00
2023-02-01T09:47:14.747Z,100.00
2023-02-01T09:49:54.476Z,100.00
2023-02-01T09:52:29.158Z,100.00
2023-02-01T09:55:01.993Z,100.00
2023-02-01T09:57:42.561Z,100.00
2023-02-01T10:00:19.157Z,100.00
2023-02-01T10:02:47.283Z,100.00
2023-02-01T10:05:18.836Z,100.00
2023-02-01T10:07:59.530Z,100.00
2023-02-01T10:10:33.414Z,100.00
2023-02-01T10:13:33.403Z,100.00
2023-02-01T10:16:19.348Z,100.00
2023-02-01T10:19:09.589Z,100.00
2023-02-01T10:21:50.014Z,98.52
2023-02-01T10:24:28.305Z,100.00
2023-02-01T10:27:04.232Z,100.00
2023-02-01T10:29:48.842Z,100.00
2023-02-01T10:32:20.005Z,99.54
2023-02-01T10:34:52.121Z,97.30
2023-02-01T10:37:29.378Z,95.70
2023-02-01T10:39:59.796Z,94.62
2023-02-01T10:42:29.635Z,93.78
2023-02-01T10:45:05.629Z,91.12
2023-02-01T10:47:33.545Z,88.02
2023-02-01T10:50:16.679Z,85.15
2023-02-01T10:52:51.042Z,82.21
2023-02-01T10:55:31.362Z,84.80
2023-02-01T10:58:00.798Z,85.42
2023-02-01T11:00:36.598Z,84.96
2023-02-01T11:03:23.256Z,83.58
2023-02-01T11:05:52.113Z,84.24
2023-02-01T11:08:21.692Z,84.23
2023-02-01T11:11:01.631Z,86.03
2023-02-01T11:13:37.358Z,86.82
2023-02-01T11:16:08.442Z,87.37
2023-02-01T11:18:39.665Z,85.06
2023-02-01T11:21:10.379Z,84.96
2023-02-01T11:23:45.256Z,87.11
2023-02-01T11:26:16.820Z,86.05
2023-02-01T11:28:53.791Z,83.28
2023-02-01T11:31:24.874Z,81.68
2023-02-01T11:33:56.431Z,81.03
2023-02-01T11:36:29.099Z,79.84
2023-02-01T11:39:11.749Z,81.21
2023-02-01T11:41:57.453Z,81.42
2023-02-01T11:44:32.919Z,80.47
2023-02-01T11:50:16.931Z,79.07
2023-02-01T11:53:00.489Z,80.28
2023-02-01T11:55:58.084Z,78.42
2023-02-01T11:58:47.952Z,76.69
2023-02-01T12:01:31.229Z,77.17
2023-02-01T12:04:20.371Z,77.32
2023-02-01T12:06:54.797Z,76.04
2023-02-01T12:09:39.211Z,75.82
2023-02-01T12:12:15.889Z,76.86
2023-02-01T12:15:07.972Z,78.71
2023-02-01T12:17:54.297Z,77.44
2023-02-01T12:20:37.066Z,77.96
2023-02-01T12:23:27.497Z,78.40
2023-02-01T12:26:25.180Z,79.57
2023-02-01T12:29:18.736Z,78.84
2023-02-01T12:32:06.266Z,79.51
2023-02-01T12:34:52.835Z,78.28
2023-02-01T12:37:34.382Z,77.56
2023-02-01T12:40:19.386Z,78.49
2023-02-01T12:42:56.005Z,79.14
2023-02-01T12:45:34.240Z,78.75
2023-02-01T12:48:16.704Z,78.25
2023-02-01T12:50:51.456Z,78.01
2023-02-01T12:53:25.619Z,76.13
2023-02-01T12:55:59.491Z,73.33
2023-02-01T12:58:34.751Z,72.68
2023-02-01T13:01:09.750Z,71.78
2023-02-01T13:03:42.652Z,70.50
2023-02-01T13:06:15.672Z,69.77
2023-02-01T13:08:54.967Z,70.09
2023-02-01T13:11:30.298Z,69.88
2023-02-01T13:14:05.447Z,69.93
2023-02-01T13:16:36.642Z,69.72
2023-02-01T13:19:12.751Z,70.37
2023-02-01T13:21:45.507Z,70.40
2023-02-01T13:24:35.025Z,69.93
2023-02-01T13:27:07.780Z,69.93
2023-02-01T13:29:37.029Z,69.14
2023-02-01T13:32:52.986Z,69.33
2023-02-01T13:35:42.650Z,71.17
2023-02-01T13:38:40.979Z,71.07
2023-02-01T13:41:27.911Z,71.42
2023-02-01T13:44:03.604Z,70.15
2023-02-01T13:46:32.623Z,70.53
2023-02-01T13:49:04.326Z,69.44
2023-02-01T13:51:39.429Z,67.58
2023-02-01T13:54:08.737Z,67.81
2023-02-01T13:56:45.041Z,67.43
2023-02-01T14:00:01.998Z,68.44
2023-02-01T14:03:05.839Z,67.00
2023-02-01T14:06:01.935Z,68.54
2023-02-01T14:08:43.233Z,72.59
2023-02-01T14:11:43.433Z,74.84
2023-02-01T14:14:45.836Z,75.70
2023-02-01T14:17:40.284Z,77.74
2023-02-01T14:20:46.713Z,80.29
2023-02-01T14:23:24.612Z,77.85
2023-02-01T14:26:14.503Z,75.13
2023-02-01T14:28:47.010Z,77.98
2023-02-01T14:31:48.917Z,76.67
2023-02-01T14:34:23.844Z,75.91
2023-02-01T14:36:57.041Z,75.05
2023-02-01T14:39:35.838Z,74.47
2023-02-01T14:42:07.908Z,77.02
2023-02-01T14:44:39.094Z,78.76
2023-02-01T14:47:32.045Z,80.08
2023-02-01T14:50:22.406Z,78.67
2023-02-01T14:53:01.186Z,78.03
2023-02-01T14:55:35.905Z,79.37
2023-02-01T14:58:19.931Z,81.78
2023-02-01T15:00:54.983Z,84.13
2023-02-01T15:03:47.122Z,85.34
2023-02-01T15:06:38.433Z,87.39
2023-02-01T15:09:18.022Z,88.34
2023-02-01T15:12:01.611Z,89.17
2023-02-01T15:14:34.223Z,90.18
2023-02-01T15:17:03.194Z,90.93
2023-02-01T15:19:33.273Z,90.57
2023-02-01T15:22:05.448Z,90.84
2023-02-01T15:25:17.072Z,90.71
2023-02-01T16:07:42.736Z,87.49
2023-02-01T16:10:56.623Z,88.63
2023-02-01T16:13:39.785Z,89.08
2023-02-01T16:16:16.400Z,88.36
2023-02-01T16:18:45.901Z,89.00
2023-02-01T16:35:15.901Z,88.24
2023-02-01T16:45:06.141Z,89.51
2023-02-01T16:53:48.332Z,90.27
2023-02-01T17:02:48.884Z,90.53
2023-02-01T17:05:18.562Z,90.02
2023-02-01T17:07:46.865Z,90.26
2023-02-01T17:10:34.658Z,90.41
2023-02-01T17:13:04.228Z,91.40
2023-02-01T17:15:37.553Z,91.17
2023-02-01T17:18:09.245Z,91.96
2023-02-01T17:23:35.095Z,92.50
2023-02-01T17:38:25.008Z,90.38
2023-02-01T17:44:09.025Z,88.16
2023-02-01T17:46:37.585Z,89.32
2023-02-01T17:49:19.967Z,87.84
2023-02-01T17:51:50.625Z,84.63
2023-02-01T17:54:20.321Z,83.82
2023-02-01T17:56:49.142Z,84.12
2023-02-01T17:59:21.599Z,84.78
2023-02-01T18:01:50.331Z,85.24
2023-02-01T18:04:26.430Z,85.85
2023-02-01T18:06:58.536Z,85.17
2023-02-01T18:12:31.340Z,86.54
2023-02-01T18:15:01.616Z,87.11
2023-02-01T18:17:33.958Z,87.34
2023-02-01T18:20:04.099Z,87.59
2023-02-01T18:22:35.444Z,88.28
2023-02-01T18:25:03.632Z,88.65
2023-02-01T18:27:32.732Z,87.45
2023-02-01T18:30:03.042Z,87.50
2023-02-01T18:32:31.555Z,86.69
2023-02-01T18:35:01.639Z,86.36
2023-02-01T18:37:29.850Z,88.02
2023-02-01T18:39:57.983Z,94.29
2023-02-01T18:42:26.178Z,98.33
2023-02-01T18:44:54.307Z,100.00
2023-02-01T18:47:36.257Z,100.00
2023-02-01T18:50:04.509Z,100.00
2023-02-01T18:52:33.125Z,100.00
2023-02-01T18:55:02.699Z,100.00
2023-02-01T18:57:30.748Z,100.00
2023-02-01T18:59:59.326Z,100.00
2023-02-01T19:02:30.747Z,100.00
2023-02-01T19:04:59.405Z,100.00
2023-02-01T19:07:27.709Z,100.00
2023-02-01T19:09:57.499Z,100.00
2023-02-01T19:12:26.174Z,100.00
2023-02-01T19:14:54.332Z,100.00
2023-02-01T19:17:23.472Z,100.00
2023-02-01T19:19:57.500Z,100.00
2023-02-01T19:22:29.412Z,100.00
2023-02-01T19:27:47.913Z,100.00
2023-02-01T19:30:20.056Z,100.00
2023-02-01T19:32:48.734Z,100.00
2023-02-01T19:35:21.645Z,100.00
2023-02-01T19:37:51.001Z,100.00
2023-02-01T19:40:22.295Z,100.00
2023-02-01T20:04:50.934Z,100.00
2023-02-01T20:07:19.309Z,100.00
2023-02-01T20:09:49.390Z,100.00
2023-02-01T20:12:19.121Z,100.00
2023-02-01T20:14:48.859Z,100.00
2023-02-01T20:17:18.630Z,100.00
2023-02-01T20:19:51.135Z,100.00
2023-02-01T20:22:20.835Z,100.00
2023-02-01T20:24:50.074Z,100.00
2023-02-01T20:27:19.555Z,100.00
2023-02-01T20:29:47.709Z,100.00
2023-02-01T20:32:16.760Z,100.00
2023-02-01T20:34:45.002Z,100.00
2023-02-01T20:37:13.214Z,100.00
2023-02-01T20:42:41.705Z,100.00
2023-02-01T20:45:10.928Z,100.00
2023-02-01T20:47:39.298Z,100.00
2023-02-01T20:50:08.548Z,100.00
2023-02-01T20:52:37.452Z,100.00
2023-02-01T20:55:08.499Z,100.00
2023-02-01T20:57:36.709Z,100.00
2023-02-01T21:00:08.099Z,100.00
2023-02-01T21:02:36.577Z,100.00
2023-02-01T21:05:04.770Z,100.00
2023-02-01T21:07:33.099Z,100.00
2023-02-01T21:10:02.292Z,100.00
2023-02-01T21:12:32.306Z,100.00
2023-02-01T21:15:00.408Z,100.00
2023-02-01T21:17:31.114Z,100.00
2023-02-01T21:19:59.425Z,100.00
2023-02-01T21:22:27.835Z,100.00
2023-02-01T21:24:55.913Z,100.00
2023-02-01T21:27:24.437Z,100.00
2023-02-01T21:29:54.298Z,100.00
2023-02-01T21:32:22.388Z,100.00
2023-02-01T21:34:50.451Z,100.00
2023-02-01T21:37:18.499Z,100.00
2023-02-01T21:39:46.602Z,100.00
2023-02-01T21:42:19.379Z,100.00
2023-02-01T21:44:48.599Z,100.00
2023-02-01T21:47:21.263Z,100.00
2023-02-01T21:49:54.002Z,100.00
2023-02-01T21:52:23.686Z,100.00
2023-02-01T21:54:59.330Z,100.00
2023-02-01T21:57:28.213Z,100.00
2023-02-01T21:59:56.444Z,100.00
2023-02-01T22:02:26.375Z,100.00
2023-02-01T22:04:54.945Z,100.00
2023-02-01T22:07:23.064Z,100.00
2023-02-01T22:09:51.253Z,100.00
2023-02-01T22:12:19.722Z,100.00
2023-02-01T22:14:49.611Z,100.00
2023-02-01T22:17:17.671Z,100.00
2023-02-01T22:19:47.179Z,100.00
2023-02-01T22:22:15.434Z,100.00
2023-02-01T22:24:43.508Z,100.00
2023-02-01T22:27:14.053Z,100.00
2023-02-01T22:29:43.478Z,100.00
2023-02-01T22:32:13.988Z,100.00
2023-02-01T22:34:45.379Z,100.00
2023-02-01T22:37:14.883Z,100.00
2023-02-01T22:39:43.035Z,100.00
2023-02-01T22:42:11.353Z,100.00
2023-02-01T22:44:41.420Z,100.00
2023-02-01T22:47:09.658Z,100.00
2023-02-01T22:49:38.447Z,100.00
2023-02-01T22:52:06.573Z,100.00
2023-02-01T22:54:36.578Z,100.00
2023-02-01T22:57:05.024Z,100.00
2023-02-01T22:59:33.650Z,100.00
2023-02-01T23:02:02.224Z,100.00
2023-02-01T23:04:30.218Z,100.00
2023-02-01T23:06:58.233Z,100.00
2023-02-01T23:09:27.344Z,100.00
2023-02-01T23:11:56.640Z,100.00
2023-02-01T23:14:24.701Z,100.00
2023-02-01T23:16:52.936Z,100.00
2023-02-01T23:19:21.421Z,100.00
2023-02-01T23:21:49.871Z,99.59
2023-02-01T23:24:17.918Z,98.32
2023-02-01T23:26:45.877Z,97.63
2023-02-01T23:29:19.341Z,98.00
2023-02-01T23:31:47.388Z,99.05
2023-02-01T23:34:15.304Z,97.33
2023-02-01T23:36:43.260Z,94.34
2023-02-01T23:39:11.156Z,93.59
2023-02-01T23:41:39.320Z,93.30
2023-02-01T23:44:07.238Z,93.41
2023-02-01T23:46:39.283Z,92.19
2023-02-01T23:49:09.244Z,91.48
2023-02-01T23:51:37.950Z,91.71
2023-02-01T23:54:06.525Z,94.60
2023-02-01T23:56:36.255Z,97.43
2023-02-01T23:59:06.539Z,98.74
